sensor_id;sensor_type;location;lat;lon;timestamp;temperature;humidity
18729;DHT22;9493;51.884;5.188;2023-03-31T00:00:59;10.80;99.90
18729;DHT22;9493;51.884;5.188;2023-03-31T00:03:25;10.80;99.90
18729;DHT22;9493;51.884;5.188;2023-03-31T00:05:56;10.80;99.90
18729;DHT22;9493;51.884;5.188;2023-03-31T00:08:23;10.80;99.90
18729;DHT22;9493;51.884;5.188;2023-03-31T00:10:57;10.80;99.90
18729;DHT22;9493;51.884;5.188;2023-03-31T00:13:24;10.80;99.90
18729;DHT22;9493;51.884;5.188;2023-03-31T00:15:55;10.90;99.90
18729;DHT22;9493;51.884;5.188;2023-03-31T00:18:22;10.90;99.90
18729;DHT22;9493;51.884;5.188;2023-03-31T00:20:50;10.90;99.90
18729;DHT22;9493;51.884;5.188;2023-03-31T00:23:17;10.90;99.90
18729;DHT22;9493;51.884;5.188;2023-03-31T00:25:54;11.00;99.90
18729;DHT22;9493;51.884;5.188;2023-03-31T00:28:21;11.00;99.90
18729;DHT22;9493;51.884;5.188;2023-03-31T00:30:48;11.00;99.90
18729;DHT22;9493;51.884;5.188;2023-03-31T00:33:16;11.00;99.90
18729;DHT22;9493;51.884;5.188;2023-03-31T00:35:43;11.00;99.90
18729;DHT22;9493;51.884;5.188;2023-03-31T00:38:10;11.00;99.90
18729;DHT22;9493;51.884;5.188;2023-03-31T00:40:44;11.10;99.90
18729;DHT22;9493;51.884;5.188;2023-03-31T00:43:25;11.10;99.90
18729;DHT22;9493;51.884;5.188;2023-03-31T00:45:53;11.10;99.90
18729;DHT22;9493;51.884;5.188;2023-03-31T00:48:21;11.00;99.90
18729;DHT22;9493;51.884;5.188;2023-03-31T00:50:52;10.90;99.90
18729;DHT22;9493;51.884;5.188;2023-03-31T00:53:22;10.90;99.90
18729;DHT22;9493;51.884;5.188;2023-03-31T00:55:53;10.80;99.90
18729;DHT22;9493;51.884;5.188;2023-03-31T00:58:23;10.80;99.90
18729;DHT22;9493;51.884;5.188;2023-03-31T01:00:53;10.80;99.90
18729;DHT22;9493;51.884;5.188;2023-03-31T01:03:21;10.80;99.90
18729;DHT22;9493;51.884;5.188;2023-03-31T01:05:50;10.80;99.90
18729;DHT22;9493;51.884;5.188;2023-03-31T01:08:21;10.70;99.90
18729;DHT22;9493;51.884;5.188;2023-03-31T01:10:51;10.70;99.90
18729;DHT22;9493;51.884;5.188;2023-03-31T01:13:21;10.70;99.90
18729;DHT22;9493;51.884;5.188;2023-03-31T01:15:49;10.60;99.90
18729;DHT22;9493;51.884;5.188;2023-03-31T01:18:16;10.70;99.90
18729;DHT22;9493;51.884;5.188;2023-03-31T01:21:02;10.70;99.90
18729;DHT22;9493;51.884;5.188;2023-03-31T01:23:51;10.70;99.90
18729;DHT22;9493;51.884;5.188;2023-03-31T01:26:53;10.70;99.90
18729;DHT22;9493;51.884;5.188;2023-03-31T01:29:45;10.70;99.90
18729;DHT22;9493;51.884;5.188;2023-03-31T01:32:34;10.70;99.90
18729;DHT22;9493;51.884;5.188;2023-03-31T01:41:36;10.70;99.90
18729;DHT22;9493;51.884;5.188;2023-03-31T01:44:10;10.70;99.90
18729;DHT22;9493;51.884;5.188;2023-03-31T01:46:42;10.70;99.90
18729;DHT22;9493;51.884;5.188;2023-03-31T01:49:16;10.80;99.90
18729;DHT22;9493;51.884;5.188;2023-03-31T01:51:48;10.70;99.90
18729;DHT22;9493;51.884;5.188;2023-03-31T01:54:21;10.80;99.90
18729;DHT22;9493;51.884;5.188;2023-03-31T01:56:55;10.80;99.90
18729;DHT22;9493;51.884;5.188;2023-03-31T01:59:26;10.80;99.90
18729;DHT22;9493;51.884;5.188;2023-03-31T02:01:58;10.80;99.90
18729;DHT22;9493;51.884;5.188;2023-03-31T02:04:28;10.90;99.90
18729;DHT22;9493;51.884;5.188;2023-03-31T02:07:01;10.90;99.90
18729;DHT22;9493;51.884;5.188;2023-03-31T02:09:32;10.90;99.90
18729;DHT22;9493;51.884;5.188;2023-03-31T02:12:04;11.00;99.90
18729;DHT22;9493;51.884;5.188;2023-03-31T02:14:33;10.90;99.90
18729;DHT22;9493;51.884;5.188;2023-03-31T02:17:03;10.90;99.90
18729;DHT22;9493;51.884;5.188;2023-03-31T02:19:35;10.90;99.90
18729;DHT22;9493;51.884;5.188;2023-03-31T02:22:05;10.90;99.90
18729;DHT22;9493;51.884;5.188;2023-03-31T02:24:35;10.90;99.90
18729;DHT22;9493;51.884;5.188;2023-03-31T02:27:06;10.80;99.90
18729;DHT22;9493;51.884;5.188;2023-03-31T02:29:34;10.90;99.90
18729;DHT22;9493;51.884;5.188;2023-03-31T02:32:05;10.90;99.90
18729;DHT22;9493;51.884;5.188;2023-03-31T02:34:33;10.80;99.90
18729;DHT22;9493;51.884;5.188;2023-03-31T02:37:00;10.80;99.90
18729;DHT22;9493;51.884;5.188;2023-03-31T02:39:29;10.80;99.90
18729;DHT22;9493;51.884;5.188;2023-03-31T02:41:59;10.80;99.90
18729;DHT22;9493;51.884;5.188;2023-03-31T02:44:32;10.70;99.90
18729;DHT22;9493;51.884;5.188;2023-03-31T02:46:59;10.70;99.90
18729;DHT22;9493;51.884;5.188;2023-03-31T02:49:27;10.70;99.90
18729;DHT22;9493;51.884;5.188;2023-03-31T02:52:22;10.70;99.90
18729;DHT22;9493;51.884;5.188;2023-03-31T02:58:08;10.60;99.90
18729;DHT22;9493;51.884;5.188;2023-03-31T03:00:57;10.60;99.90
18729;DHT22;9493;51.884;5.188;2023-03-31T03:03:37;10.60;99.90
18729;DHT22;9493;51.884;5.188;2023-03-31T03:06:17;10.60;99.90
18729;DHT22;9493;51.884;5.188;2023-03-31T03:09:00;10.60;99.90
18729;DHT22;9493;51.884;5.188;2023-03-31T03:11:37;10.60;99.90
18729;DHT22;9493;51.884;5.188;2023-03-31T03:14:09;10.60;99.90
18729;DHT22;9493;51.884;5.188;2023-03-31T03:16:44;10.60;99.90
18729;DHT22;9493;51.884;5.188;2023-03-31T03:19:18;10.60;99.90
18729;DHT22;9493;51.884;5.188;2023-03-31T03:21:45;10.60;99.90
18729;DHT22;9493;51.884;5.188;2023-03-31T03:24:13;10.50;99.90
18729;DHT22;9493;51.884;5.188;2023-03-31T03:26:40;10.50;99.90
18729;DHT22;9493;51.884;5.188;2023-03-31T03:29:07;10.50;99.90
18729;DHT22;9493;51.884;5.188;2023-03-31T03:31:34;10.60;99.90
18729;DHT22;9493;51.884;5.188;2023-03-31T03:34:02;10.50;99.90
18729;DHT22;9493;51.884;5.188;2023-03-31T03:36:29;10.40;99.90
18729;DHT22;9493;51.884;5.188;2023-03-31T03:38:55;10.30;99.90
18729;DHT22;9493;51.884;5.188;2023-03-31T03:41:22;10.30;99.90
18729;DHT22;9493;51.884;5.188;2023-03-31T03:43:49;10.30;99.90
18729;DHT22;9493;51.884;5.188;2023-03-31T03:46:16;10.30;99.90
18729;DHT22;9493;51.884;5.188;2023-03-31T03:48:42;10.30;99.90
18729;DHT22;9493;51.884;5.188;2023-03-31T03:51:11;10.30;99.90
18729;DHT22;9493;51.884;5.188;2023-03-31T03:53:37;10.30;99.90
18729;DHT22;9493;51.884;5.188;2023-03-31T03:56:05;10.30;99.90
18729;DHT22;9493;51.884;5.188;2023-03-31T03:58:31;10.30;99.90
18729;DHT22;9493;51.884;5.188;2023-03-31T04:00:58;10.40;99.90
18729;DHT22;9493;51.884;5.188;2023-03-31T04:03:26;10.30;99.90
18729;DHT22;9493;51.884;5.188;2023-03-31T04:05:52;10.30;99.90
18729;DHT22;9493;51.884;5.188;2023-03-31T04:08:20;10.40;99.90
18729;DHT22;9493;51.884;5.188;2023-03-31T04:10:50;10.40;99.90
18729;DHT22;9493;51.884;5.188;2023-03-31T04:13:18;10.40;99.90
18729;DHT22;9493;51.884;5.188;2023-03-31T04:15:45;10.40;99.90
18729;DHT22;9493;51.884;5.188;2023-03-31T04:18:12;10.50;99.90
18729;DHT22;9493;51.884;5.188;2023-03-31T04:20:43;10.50;99.90
18729;DHT22;9493;51.884;5.188;2023-03-31T04:23:10;10.40;99.90
18729;DHT22;9493;51.884;5.188;2023-03-31T04:25:40;10.40;99.90
18729;DHT22;9493;51.884;5.188;2023-03-31T04:28:11;10.40;99.90
18729;DHT22;9493;51.884;5.188;2023-03-31T04:30:39;10.40;99.90
18729;DHT22;9493;51.884;5.188;2023-03-31T04:33:06;10.40;99.90
18729;DHT22;9493;51.884;5.188;2023-03-31T04:35:32;10.40;99.90
18729;DHT22;9493;51.884;5.188;2023-03-31T04:38:14;10.40;99.90
18729;DHT22;9493;51.884;5.188;2023-03-31T04:40:44;10.50;99.90
18729;DHT22;9493;51.884;5.188;2023-03-31T04:43:12;10.60;99.90
18729;DHT22;9493;51.884;5.188;2023-03-31T04:45:39;10.40;99.90
18729;DHT22;9493;51.884;5.188;2023-03-31T04:48:06;10.50;99.90
18729;DHT22;9493;51.884;5.188;2023-03-31T04:50:33;10.40;99.90
18729;DHT22;9493;51.884;5.188;2023-03-31T04:53:00;10.40;99.90
18729;DHT22;9493;51.884;5.188;2023-03-31T04:55:27;10.40;99.90
18729;DHT22;9493;51.884;5.188;2023-03-31T04:57:55;10.40;99.90
18729;DHT22;9493;51.884;5.188;2023-03-31T05:00:22;10.40;99.90
18729;DHT22;9493;51.884;5.188;2023-03-31T05:02:49;10.40;99.90
18729;DHT22;9493;51.884;5.188;2023-03-31T05:05:16;10.40;99.90
18729;DHT22;9493;51.884;5.188;2023-03-31T05:07:43;10.40;99.90
18729;DHT22;9493;51.884;5.188;2023-03-31T05:10:10;10.40;99.90
18729;DHT22;9493;51.884;5.188;2023-03-31T05:12:38;10.40;99.90
18729;DHT22;9493;51.884;5.188;2023-03-31T05:15:07;10.40;99.90
18729;DHT22;9493;51.884;5.188;2023-03-31T05:17:35;10.30;99.90
18729;DHT22;9493;51.884;5.188;2023-03-31T05:20:03;10.30;99.90
18729;DHT22;9493;51.884;5.188;2023-03-31T05:22:33;10.40;99.90
18729;DHT22;9493;51.884;5.188;2023-03-31T05:25:01;10.30;99.90
18729;DHT22;9493;51.884;5.188;2023-03-31T05:27:28;10.30;99.90
18729;DHT22;9493;51.884;5.188;2023-03-31T05:29:55;10.30;99.90
18729;DHT22;9493;51.884;5.188;2023-03-31T05:32:24;10.30;99.90
18729;DHT22;9493;51.884;5.188;2023-03-31T05:34:51;10.30;99.90
18729;DHT22;9493;51.884;5.188;2023-03-31T05:37:22;10.20;99.90
18729;DHT22;9493;51.884;5.188;2023-03-31T05:39:49;10.30;99.90
18729;DHT22;9493;51.884;5.188;2023-03-31T05:42:16;10.30;99.90
18729;DHT22;9493;51.884;5.188;2023-03-31T05:44:43;10.30;99.90
18729;DHT22;9493;51.884;5.188;2023-03-31T05:47:10;10.30;99.90
18729;DHT22;9493;51.884;5.188;2023-03-31T05:49:38;10.30;99.90
18729;DHT22;9493;51.884;5.188;2023-03-31T05:52:05;10.30;99.90
18729;DHT22;9493;51.884;5.188;2023-03-31T05:54:32;10.30;99.90
18729;DHT22;9493;51.884;5.188;2023-03-31T05:56:59;10.40;99.90
18729;DHT22;9493;51.884;5.188;2023-03-31T05:59:26;10.30;99.90
18729;DHT22;9493;51.884;5.188;2023-03-31T06:01:53;10.40;99.90
18729;DHT22;9493;51.884;5.188;2023-03-31T06:04:19;10.40;99.90
18729;DHT22;9493;51.884;5.188;2023-03-31T06:06:47;10.50;99.90
18729;DHT22;9493;51.884;5.188;2023-03-31T06:09:15;10.50;99.90
18729;DHT22;9493;51.884;5.188;2023-03-31T06:11:43;10.50;99.90
18729;DHT22;9493;51.884;5.188;2023-03-31T06:14:10;10.50;99.90
18729;DHT22;9493;51.884;5.188;2023-03-31T06:16:37;10.50;99.90
18729;DHT22;9493;51.884;5.188;2023-03-31T06:19:03;10.50;99.90
18729;DHT22;9493;51.884;5.188;2023-03-31T06:21:30;10.40;99.90
18729;DHT22;9493;51.884;5.188;2023-03-31T06:23:59;10.40;99.90
18729;DHT22;9493;51.884;5.188;2023-03-31T06:26:26;10.40;99.90
18729;DHT22;9493;51.884;5.188;2023-03-31T06:28:53;10.40;99.90
18729;DHT22;9493;51.884;5.188;2023-03-31T06:31:21;10.40;99.90
18729;DHT22;9493;51.884;5.188;2023-03-31T06:33:49;10.40;99.90
18729;DHT22;9493;51.884;5.188;2023-03-31T06:36:18;10.40;99.90
18729;DHT22;9493;51.884;5.188;2023-03-31T06:38:45;10.30;99.90
18729;DHT22;9493;51.884;5.188;2023-03-31T06:41:14;10.40;99.90
18729;DHT22;9493;51.884;5.188;2023-03-31T06:43:41;10.40;99.90
18729;DHT22;9493;51.884;5.188;2023-03-31T06:46:09;10.50;99.90
18729;DHT22;9493;51.884;5.188;2023-03-31T06:48:36;10.40;99.90
18729;DHT22;9493;51.884;5.188;2023-03-31T06:51:04;10.40;99.90
18729;DHT22;9493;51.884;5.188;2023-03-31T06:53:31;10.40;99.90
18729;DHT22;9493;51.884;5.188;2023-03-31T06:55:59;10.50;99.90
18729;DHT22;9493;51.884;5.188;2023-03-31T06:58:27;10.40;99.90
18729;DHT22;9493;51.884;5.188;2023-03-31T07:00:53;10.40;99.90
18729;DHT22;9493;51.884;5.188;2023-03-31T07:03:20;10.40;99.90
18729;DHT22;9493;51.884;5.188;2023-03-31T07:05:50;10.30;99.90
18729;DHT22;9493;51.884;5.188;2023-03-31T07:08:17;10.30;99.90
18729;DHT22;9493;51.884;5.188;2023-03-31T07:10:44;10.30;99.90
18729;DHT22;9493;51.884;5.188;2023-03-31T07:13:13;10.30;99.90
18729;DHT22;9493;51.884;5.188;2023-03-31T07:15:42;10.30;99.90
18729;DHT22;9493;51.884;5.188;2023-03-31T07:18:08;10.30;99.90
18729;DHT22;9493;51.884;5.188;2023-03-31T07:20:37;10.30;99.90
18729;DHT22;9493;51.884;5.188;2023-03-31T07:23:04;10.30;99.90
18729;DHT22;9493;51.884;5.188;2023-03-31T07:25:31;10.30;99.90
18729;DHT22;9493;51.884;5.188;2023-03-31T07:27:58;10.30;99.90
18729;DHT22;9493;51.884;5.188;2023-03-31T07:30:25;10.40;99.90
18729;DHT22;9493;51.884;5.188;2023-03-31T07:32:53;10.40;99.90
18729;DHT22;9493;51.884;5.188;2023-03-31T07:35:21;10.40;99.90
18729;DHT22;9493;51.884;5.188;2023-03-31T07:37:49;10.50;99.90
18729;DHT22;9493;51.884;5.188;2023-03-31T07:40:18;10.50;99.90
18729;DHT22;9493;51.884;5.188;2023-03-31T07:42:45;10.50;99.90
18729;DHT22;9493;51.884;5.188;2023-03-31T07:45:14;10.50;99.90
18729;DHT22;9493;51.884;5.188;2023-03-31T07:47:41;10.60;99.90
18729;DHT22;9493;51.884;5.188;2023-03-31T07:50:10;10.70;99.90
18729;DHT22;9493;51.884;5.188;2023-03-31T07:52:38;10.80;99.90
18729;DHT22;9493;51.884;5.188;2023-03-31T07:55:05;10.90;99.90
18729;DHT22;9493;51.884;5.188;2023-03-31T07:57:33;11.00;99.90
18729;DHT22;9493;51.884;5.188;2023-03-31T08:00:00;11.00;99.90
18729;DHT22;9493;51.884;5.188;2023-03-31T08:02:31;11.00;99.90
18729;DHT22;9493;51.884;5.188;2023-03-31T08:04:57;11.20;99.90
18729;DHT22;9493;51.884;5.188;2023-03-31T08:07:26;11.20;99.90
18729;DHT22;9493;51.884;5.188;2023-03-31T08:09:55;11.30;99.90
18729;DHT22;9493;51.884;5.188;2023-03-31T08:12:22;11.40;99.90
18729;DHT22;9493;51.884;5.188;2023-03-31T08:14:49;11.50;99.90
18729;DHT22;9493;51.884;5.188;2023-03-31T08:17:16;11.50;99.90
18729;DHT22;9493;51.884;5.188;2023-03-31T08:19:43;11.70;99.90
18729;DHT22;9493;51.884;5.188;2023-03-31T08:22:10;11.60;99.90
18729;DHT22;9493;51.884;5.188;2023-03-31T08:24:38;11.60;99.90
18729;DHT22;9493;51.884;5.188;2023-03-31T08:27:05;11.60;99.90
18729;DHT22;9493;51.884;5.188;2023-03-31T08:29:31;11.60;99.90
18729;DHT22;9493;51.884;5.188;2023-03-31T08:31:58;11.60;99.90
18729;DHT22;9493;51.884;5.188;2023-03-31T08:34:25;11.60;99.90
18729;DHT22;9493;51.884;5.188;2023-03-31T08:36:52;11.70;99.90
18729;DHT22;9493;51.884;5.188;2023-03-31T08:39:19;11.60;99.90
18729;DHT22;9493;51.884;5.188;2023-03-31T08:41:53;11.70;99.90
18729;DHT22;9493;51.884;5.188;2023-03-31T08:44:28;11.70;99.90
18729;DHT22;9493;51.884;5.188;2023-03-31T08:46:58;11.80;99.90
18729;DHT22;9493;51.884;5.188;2023-03-31T08:49:27;11.80;99.90
18729;DHT22;9493;51.884;5.188;2023-03-31T08:52:00;11.90;99.90
18729;DHT22;9493;51.884;5.188;2023-03-31T08:54:31;11.90;99.90
18729;DHT22;9493;51.884;5.188;2023-03-31T08:57:00;11.90;99.90
18729;DHT22;9493;51.884;5.188;2023-03-31T08:59:30;12.00;99.90
18729;DHT22;9493;51.884;5.188;2023-03-31T09:02:03;12.00;99.90
18729;DHT22;9493;51.884;5.188;2023-03-31T09:04:54;12.20;99.90
18729;DHT22;9493;51.884;5.188;2023-03-31T09:07:29;12.40;99.90
18729;DHT22;9493;51.884;5.188;2023-03-31T09:10:05;12.50;99.90
18729;DHT22;9493;51.884;5.188;2023-03-31T09:12:46;12.70;99.90
18729;DHT22;9493;51.884;5.188;2023-03-31T09:15:21;12.80;99.90
18729;DHT22;9493;51.884;5.188;2023-03-31T09:17:51;12.80;99.90
18729;DHT22;9493;51.884;5.188;2023-03-31T09:20:22;12.70;99.90
18729;DHT22;9493;51.884;5.188;2023-03-31T09:22:59;12.70;99.90
18729;DHT22;9493;51.884;5.188;2023-03-31T09:25:30;12.80;99.90
18729;DHT22;9493;51.884;5.188;2023-03-31T09:27:59;12.80;99.90
18729;DHT22;9493;51.884;5.188;2023-03-31T09:30:29;12.80;99.90
18729;DHT22;9493;51.884;5.188;2023-03-31T09:33:05;12.70;99.90
18729;DHT22;9493;51.884;5.188;2023-03-31T09:35:36;12.70;99.90
18729;DHT22;9493;51.884;5.188;2023-03-31T09:38:03;12.70;99.90
18729;DHT22;9493;51.884;5.188;2023-03-31T09:40:29;12.70;99.90
18729;DHT22;9493;51.884;5.188;2023-03-31T09:43:00;12.60;99.90
18729;DHT22;9493;51.884;5.188;2023-03-31T09:45:28;12.60;99.90
18729;DHT22;9493;51.884;5.188;2023-03-31T09:47:56;12.80;99.90
18729;DHT22;9493;51.884;5.188;2023-03-31T09:50:25;12.90;99.90
18729;DHT22;9493;51.884;5.188;2023-03-31T09:52:55;13.10;99.90
18729;DHT22;9493;51.884;5.188;2023-03-31T09:55:25;13.30;99.90
18729;DHT22;9493;51.884;5.188;2023-03-31T09:57:54;13.30;99.90
18729;DHT22;9493;51.884;5.188;2023-03-31T10:00:22;13.50;99.90
18729;DHT22;9493;51.884;5.188;2023-03-31T10:02:50;13.60;99.90
18729;DHT22;9493;51.884;5.188;2023-03-31T10:05:26;13.60;99.90
18729;DHT22;9493;51.884;5.188;2023-03-31T10:08:17;13.50;99.90
18729;DHT22;9493;51.884;5.188;2023-03-31T10:10:47;13.50;99.90
18729;DHT22;9493;51.884;5.188;2023-03-31T10:13:16;13.60;99.90
18729;DHT22;9493;51.884;5.188;2023-03-31T10:15:46;13.60;99.90
18729;DHT22;9493;51.884;5.188;2023-03-31T10:18:14;13.70;99.90
18729;DHT22;9493;51.884;5.188;2023-03-31T10:20:44;13.60;99.90
18729;DHT22;9493;51.884;5.188;2023-03-31T10:23:16;13.50;99.90
18729;DHT22;9493;51.884;5.188;2023-03-31T10:25:45;13.60;99.90
18729;DHT22;9493;51.884;5.188;2023-03-31T10:28:16;13.70;99.90
18729;DHT22;9493;51.884;5.188;2023-03-31T10:30:48;13.60;99.90
18729;DHT22;9493;51.884;5.188;2023-03-31T10:33:18;13.60;99.90
18729;DHT22;9493;51.884;5.188;2023-03-31T10:35:47;13.50;99.90
18729;DHT22;9493;51.884;5.188;2023-03-31T10:38:23;13.50;99.90
18729;DHT22;9493;51.884;5.188;2023-03-31T10:40:53;13.50;99.90
18729;DHT22;9493;51.884;5.188;2023-03-31T10:43:25;13.50;99.90
18729;DHT22;9493;51.884;5.188;2023-03-31T10:45:55;13.40;99.90
18729;DHT22;9493;51.884;5.188;2023-03-31T10:48:25;13.20;99.90
18729;DHT22;9493;51.884;5.188;2023-03-31T10:50:53;13.20;99.90
18729;DHT22;9493;51.884;5.188;2023-03-31T10:53:20;13.10;99.90
18729;DHT22;9493;51.884;5.188;2023-03-31T10:56:08;13.20;99.90
18729;DHT22;9493;51.884;5.188;2023-03-31T10:58:52;13.30;99.90
18729;DHT22;9493;51.884;5.188;2023-03-31T11:01:28;13.30;99.90
18729;DHT22;9493;51.884;5.188;2023-03-31T11:04:18;13.30;99.90
18729;DHT22;9493;51.884;5.188;2023-03-31T11:06:54;13.10;99.90
18729;DHT22;9493;51.884;5.188;2023-03-31T11:09:33;13.10;99.90
18729;DHT22;9493;51.884;5.188;2023-03-31T11:12:11;13.00;99.90
18729;DHT22;9493;51.884;5.188;2023-03-31T11:14:45;13.00;99.90
18729;DHT22;9493;51.884;5.188;2023-03-31T11:17:25;12.70;99.90
18729;DHT22;9493;51.884;5.188;2023-03-31T11:20:02;12.50;99.90
18729;DHT22;9493;51.884;5.188;2023-03-31T11:22:43;12.50;99.90
18729;DHT22;9493;51.884;5.188;2023-03-31T11:25:26;12.60;99.90
18729;DHT22;9493;51.884;5.188;2023-03-31T11:28:13;12.40;99.90
18729;DHT22;9493;51.884;5.188;2023-03-31T11:30:48;12.40;99.90
18729;DHT22;9493;51.884;5.188;2023-03-31T11:33:36;12.40;99.90
18729;DHT22;9493;51.884;5.188;2023-03-31T11:36:19;12.50;99.90
18729;DHT22;9493;51.884;5.188;2023-03-31T11:39:17;12.60;99.90
18729;DHT22;9493;51.884;5.188;2023-03-31T11:41:49;12.80;99.90
18729;DHT22;9493;51.884;5.188;2023-03-31T11:44:18;12.80;99.90
18729;DHT22;9493;51.884;5.188;2023-03-31T11:46:47;12.80;99.90
18729;DHT22;9493;51.884;5.188;2023-03-31T11:49:19;12.70;99.90
18729;DHT22;9493;51.884;5.188;2023-03-31T11:51:50;12.70;99.90
18729;DHT22;9493;51.884;5.188;2023-03-31T11:54:23;12.60;99.90
18729;DHT22;9493;51.884;5.188;2023-03-31T11:56:55;12.60;99.90
18729;DHT22;9493;51.884;5.188;2023-03-31T11:59:24;12.50;99.90
18729;DHT22;9493;51.884;5.188;2023-03-31T12:01:58;12.60;99.90
18729;DHT22;9493;51.884;5.188;2023-03-31T12:04:31;12.40;99.90
18729;DHT22;9493;51.884;5.188;2023-03-31T12:07:03;12.40;99.90
18729;DHT22;9493;51.884;5.188;2023-03-31T12:09:36;12.30;99.90
18729;DHT22;9493;51.884;5.188;2023-03-31T12:12:06;12.20;99.90
18729;DHT22;9493;51.884;5.188;2023-03-31T12:14:39;12.20;99.90
18729;DHT22;9493;51.884;5.188;2023-03-31T12:17:10;12.00;99.90
18729;DHT22;9493;51.884;5.188;2023-03-31T12:19:44;12.10;99.90
18729;DHT22;9493;51.884;5.188;2023-03-31T12:22:16;12.00;99.90
18729;DHT22;9493;51.884;5.188;2023-03-31T12:24:44;12.20;99.90
18729;DHT22;9493;51.884;5.188;2023-03-31T12:27:15;12.20;99.90
18729;DHT22;9493;51.884;5.188;2023-03-31T12:29:45;12.30;99.90
18729;DHT22;9493;51.884;5.188;2023-03-31T12:32:15;12.30;99.90
18729;DHT22;9493;51.884;5.188;2023-03-31T12:34:47;12.40;99.90
18729;DHT22;9493;51.884;5.188;2023-03-31T12:37:35;12.40;99.90
18729;DHT22;9493;51.884;5.188;2023-03-31T12:40:13;12.50;99.90
18729;DHT22;9493;51.884;5.188;2023-03-31T12:43:00;12.50;99.90
18729;DHT22;9493;51.884;5.188;2023-03-31T12:45:30;12.40;99.90
18729;DHT22;9493;51.884;5.188;2023-03-31T12:48:33;12.50;99.90
18729;DHT22;9493;51.884;5.188;2023-03-31T12:51:19;12.60;99.90
18729;DHT22;9493;51.884;5.188;2023-03-31T12:53:59;12.50;99.90
18729;DHT22;9493;51.884;5.188;2023-03-31T12:57:07;12.70;99.90
18729;DHT22;9493;51.884;5.188;2023-03-31T12:59:39;12.70;99.90
18729;DHT22;9493;51.884;5.188;2023-03-31T13:02:24;12.60;99.90
18729;DHT22;9493;51.884;5.188;2023-03-31T13:04:51;12.50;99.90
18729;DHT22;9493;51.884;5.188;2023-03-31T13:07:41;12.70;99.90
18729;DHT22;9493;51.884;5.188;2023-03-31T13:10:28;12.80;99.90
18729;DHT22;9493;51.884;5.188;2023-03-31T13:13:01;12.70;99.90
18729;DHT22;9493;51.884;5.188;2023-03-31T13:15:29;12.50;99.90
18729;DHT22;9493;51.884;5.188;2023-03-31T13:17:57;12.40;99.90
18729;DHT22;9493;51.884;5.188;2023-03-31T13:20:35;12.30;99.90
18729;DHT22;9493;51.884;5.188;2023-03-31T13:23:15;12.10;99.90
18729;DHT22;9493;51.884;5.188;2023-03-31T13:25:46;12.10;99.90
18729;DHT22;9493;51.884;5.188;2023-03-31T13:28:31;12.10;99.90
18729;DHT22;9493;51.884;5.188;2023-03-31T13:31:00;12.20;99.90
18729;DHT22;9493;51.884;5.188;2023-03-31T13:33:36;12.20;99.90
18729;DHT22;9493;51.884;5.188;2023-03-31T13:36:18;12.20;99.90
18729;DHT22;9493;51.884;5.188;2023-03-31T13:38:52;12.20;99.90
18729;DHT22;9493;51.884;5.188;2023-03-31T13:41:35;12.20;99.90
18729;DHT22;9493;51.884;5.188;2023-03-31T13:44:18;12.30;99.90
18729;DHT22;9493;51.884;5.188;2023-03-31T13:47:26;12.30;99.90
18729;DHT22;9493;51.884;5.188;2023-03-31T13:52:58;12.20;99.90
18729;DHT22;9493;51.884;5.188;2023-03-31T13:55:48;12.20;99.90
18729;DHT22;9493;51.884;5.188;2023-03-31T13:58:57;12.20;99.90
18729;DHT22;9493;51.884;5.188;2023-03-31T14:01:45;12.20;99.90
18729;DHT22;9493;51.884;5.188;2023-03-31T14:04:29;12.20;99.90
18729;DHT22;9493;51.884;5.188;2023-03-31T14:07:07;12.30;99.90
18729;DHT22;9493;51.884;5.188;2023-03-31T14:09:39;12.00;99.90
18729;DHT22;9493;51.884;5.188;2023-03-31T14:12:29;11.80;99.90
18729;DHT22;9493;51.884;5.188;2023-03-31T14:14:57;11.70;99.90
18729;DHT22;9493;51.884;5.188;2023-03-31T14:17:27;11.70;99.90
18729;DHT22;9493;51.884;5.188;2023-03-31T14:20:20;11.70;99.90
18729;DHT22;9493;51.884;5.188;2023-03-31T14:22:57;11.80;99.90
18729;DHT22;9493;51.884;5.188;2023-03-31T14:25:35;11.90;99.90
18729;DHT22;9493;51.884;5.188;2023-03-31T14:28:16;12.20;99.90
18729;DHT22;9493;51.884;5.188;2023-03-31T14:30:51;12.20;99.90
18729;DHT22;9493;51.884;5.188;2023-03-31T14:33:31;12.10;99.90
18729;DHT22;9493;51.884;5.188;2023-03-31T14:36:06;12.20;99.90
18729;DHT22;9493;51.884;5.188;2023-03-31T14:38:35;12.00;99.90
18729;DHT22;9493;51.884;5.188;2023-03-31T14:41:02;12.00;99.90
18729;DHT22;9493;51.884;5.188;2023-03-31T14:43:32;12.10;99.90
18729;DHT22;9493;51.884;5.188;2023-03-31T14:46:01;11.90;99.90
18729;DHT22;9493;51.884;5.188;2023-03-31T14:48:30;12.00;99.90
18729;DHT22;9493;51.884;5.188;2023-03-31T14:51:00;11.90;99.90
18729;DHT22;9493;51.884;5.188;2023-03-31T14:53:27;11.80;99.90
18729;DHT22;9493;51.884;5.188;2023-03-31T14:56:00;11.90;99.90
18729;DHT22;9493;51.884;5.188;2023-03-31T14:58:31;11.90;99.90
18729;DHT22;9493;51.884;5.188;2023-03-31T15:01:01;11.80;99.90
18729;DHT22;9493;51.884;5.188;2023-03-31T15:03:29;11.80;99.90
18729;DHT22;9493;51.884;5.188;2023-03-31T15:05:58;11.90;99.90
18729;DHT22;9493;51.884;5.188;2023-03-31T15:08:26;11.80;99.90
18729;DHT22;9493;51.884;5.188;2023-03-31T15:10:56;11.80;99.90
18729;DHT22;9493;51.884;5.188;2023-03-31T15:13:27;11.80;99.90
18729;DHT22;9493;51.884;5.188;2023-03-31T15:16:01;11.70;99.90
18729;DHT22;9493;51.884;5.188;2023-03-31T15:18:44;11.60;99.90
18729;DHT22;9493;51.884;5.188;2023-03-31T15:21:19;11.60;99.90
18729;DHT22;9493;51.884;5.188;2023-03-31T15:23:45;11.60;99.90
18729;DHT22;9493;51.884;5.188;2023-03-31T15:26:14;11.60;99.90
18729;DHT22;9493;51.884;5.188;2023-03-31T15:28:48;11.60;99.90
18729;DHT22;9493;51.884;5.188;2023-03-31T15:31:17;11.70;99.90
18729;DHT22;9493;51.884;5.188;2023-03-31T15:33:45;11.50;99.90
18729;DHT22;9493;51.884;5.188;2023-03-31T15:36:13;11.50;99.90
18729;DHT22;9493;51.884;5.188;2023-03-31T15:38:40;11.50;99.90
18729;DHT22;9493;51.884;5.188;2023-03-31T15:41:11;11.40;99.90
18729;DHT22;9493;51.884;5.188;2023-03-31T15:43:44;11.30;99.90
18729;DHT22;9493;51.884;5.188;2023-03-31T15:46:19;11.30;99.90
18729;DHT22;9493;51.884;5.188;2023-03-31T15:48:51;11.30;99.90
18729;DHT22;9493;51.884;5.188;2023-03-31T15:51:23;11.20;99.90
18729;DHT22;9493;51.884;5.188;2023-03-31T15:53:51;11.20;99.90
18729;DHT22;9493;51.884;5.188;2023-03-31T15:56:28;11.20;99.90
18729;DHT22;9493;51.884;5.188;2023-03-31T15:58:59;11.10;99.90
18729;DHT22;9493;51.884;5.188;2023-03-31T16:01:32;11.10;99.90
18729;DHT22;9493;51.884;5.188;2023-03-31T16:04:00;11.10;99.90
18729;DHT22;9493;51.884;5.188;2023-03-31T16:06:38;11.00;99.90
18729;DHT22;9493;51.884;5.188;2023-03-31T16:09:09;11.00;99.90
18729;DHT22;9493;51.884;5.188;2023-03-31T16:11:40;11.00;99.90
18729;DHT22;9493;51.884;5.188;2023-03-31T16:14:13;11.00;99.90
18729;DHT22;9493;51.884;5.188;2023-03-31T16:16:47;11.00;99.90
18729;DHT22;9493;51.884;5.188;2023-03-31T16:19:15;11.00;99.90
18729;DHT22;9493;51.884;5.188;2023-03-31T16:21:43;11.00;99.90
18729;DHT22;9493;51.884;5.188;2023-03-31T16:24:15;10.90;99.90
18729;DHT22;9493;51.884;5.188;2023-03-31T16:26:42;11.00;99.90